Time;durP1;ratioP1;P1;durP2;ratioP2;P2;SDS_P1;SDS_P2;PMS_P1;PMS_P2;Temp;Humidity;BMP_temperature;BMP_pressure;BME280_temperature;BME280_humidity;BME280_pressure;Samples;Min_cycle;Max_cycle;Signal;HPM_P1;HPM_P2
2022/12/10 00:01:04;;;;;;;19.25;8.30;;;;;;;8.48;78.24;93302.41;5085659;28;20044;-79
2022/12/10 00:03:29;;;;;;;30.35;10.10;;;;;;;8.53;78.30;93303.03;5085562;28;20029;-79
2022/12/10 00:05:54;;;;;;;21.30;8.98;;;;;;;8.52;78.17;93306.00;5085698;28;20051;-79
2022/12/10 00:08:20;;;;;;;25.65;9.25;;;;;;;8.48;78.41;93289.13;5085546;28;20083;-80
2022/12/10 00:10:45;;;;;;;25.70;9.00;;;;;;;8.54;78.44;93282.56;5085350;28;20340;-79
2022/12/10 00:13:10;;;;;;;19.73;8.18;;;;;;;8.61;78.31;93288.97;5085370;28;20017;-79
2022/12/10 00:15:36;;;;;;;20.48;7.97;;;;;;;8.61;77.98;93294.28;5085368;28;20024;-78
2022/12/10 00:18:01;;;;;;;28.25;8.20;;;;;;;8.64;77.97;93283.00;5085315;28;20027;-79
2022/12/10 00:20:27;;;;;;;33.22;9.63;;;;;;;8.72;77.65;93294.72;5085298;28;20104;-79
2022/12/10 00:22:52;;;;;;;24.17;8.20;;;;;;;8.77;76.86;93296.44;5085231;28;20040;-79
2022/12/10 00:25:17;;;;;;;25.00;7.75;;;;;;;8.71;77.32;93281.75;5085020;28;20027;-79
2022/12/10 00:27:43;;;;;;;23.58;8.00;;;;;;;8.73;77.09;93284.88;5085252;28;20024;-80
2022/12/10 00:30:09;;;;;;;27.20;8.80;;;;;;;8.63;77.32;93292.09;5084638;28;20289;-79
2022/12/10 00:32:35;;;;;;;29.95;9.13;;;;;;;8.55;77.70;93284.13;5084914;28;20028;-79
2022/12/10 00:35:01;;;;;;;25.33;7.80;;;;;;;8.42;78.33;93286.59;5084977;28;20063;-79
2022/12/10 00:37:26;;;;;;;19.98;8.35;;;;;;;8.36;78.52;93295.03;5083769;28;20319;-79
2022/12/10 00:39:52;;;;;;;21.40;8.20;;;;;;;8.30;78.73;93293.63;5084894;28;20036;-79
2022/12/10 00:42:17;;;;;;;22.13;7.40;;;;;;;8.39;78.82;93295.19;5084757;28;20020;-79
2022/12/10 00:44:42;;;;;;;22.65;8.25;;;;;;;8.42;78.64;93275.22;5084675;28;20095;-79
2022/12/10 00:47:08;;;;;;;24.75;7.32;;;;;;;8.37;78.95;93291.28;5084667;28;20067;-79
2022/12/10 00:49:33;;;;;;;31.65;8.27;;;;;;;8.42;78.92;93293.81;5084891;28;20024;-79
2022/12/10 00:51:59;;;;;;;19.65;7.82;;;;;;;8.43;78.73;93290.06;5084506;28;20315;-80
2022/12/10 00:54:24;;;;;;;20.27;8.38;;;;;;;8.40;79.28;93310.00;5084688;28;20043;-80
2022/12/10 00:56:50;;;;;;;23.55;8.65;;;;;;;8.51;78.96;93299.09;5083508;28;20091;-80
2022/12/10 00:59:15;;;;;;;30.90;9.50;;;;;;;8.49;78.97;93317.22;5083288;28;20238;-80
2022/12/10 01:01:42;;;;;;;27.38;8.38;;;;;;;8.47;79.54;93287.53;5084263;28;20130;-80
2022/12/10 01:04:13;;;;;;;24.10;8.43;;;;;;;8.42;79.32;93304.44;5084379;28;20254;-80
2022/12/10 01:06:46;;;;;;;20.52;7.40;;;;;;;8.43;80.03;93292.72;5084349;28;20028;-80
2022/12/10 01:09:14;;;;;;;20.40;7.30;;;;;;;8.39;80.08;93283.78;5084033;28;20031;-80
2022/12/10 01:11:42;;;;;;;21.30;8.48;;;;;;;8.42;79.50;93293.81;5084322;28;20020;-80
2022/12/10 01:14:11;;;;;;;22.20;8.75;;;;;;;8.53;79.81;93287.09;5084190;28;20024;-80
2022/12/10 01:16:37;;;;;;;21.33;7.97;;;;;;;8.58;79.98;93284.25;5084171;28;20031;-80
2022/12/10 01:19:03;;;;;;;24.75;8.25;;;;;;;8.63;79.83;93284.13;5084136;28;20025;-81
2022/12/10 01:21:29;;;;;;;19.55;7.97;;;;;;;8.66;79.62;93268.63;5083936;28;20036;-81
2022/12/10 01:23:56;;;;;;;19.90;7.72;;;;;;;8.62;79.71;93261.28;5083829;28;20230;-80
2022/12/10 01:26:27;;;;;;;25.38;8.10;;;;;;;8.70;79.66;93267.69;5084047;28;20035;-81
2022/12/10 01:28:54;;;;;;;23.73;7.77;;;;;;;8.72;79.44;93283.31;5083766;28;20040;-82
2022/12/10 01:31:28;;;;;;;25.50;8.00;;;;;;;8.66;79.41;93264.09;5083661;28;20017;-81
2022/12/10 01:33:55;;;;;;;27.33;8.18;;;;;;;8.63;79.67;93256.78;5083721;28;20096;-82
2022/12/10 01:36:33;;;;;;;22.23;8.38;;;;;;;8.66;79.91;93266.75;5082616;28;20027;-81
2022/12/10 01:39:00;;;;;;;29.60;9.30;;;;;;;8.74;79.76;93270.50;5083687;28;20034;-82
2022/12/10 01:41:34;;;;;;;24.73;7.93;;;;;;;8.72;79.79;93272.69;5083487;28;20368;-82
2022/12/10 01:44:08;;;;;;;10.85;4.65;;;;;;;8.73;79.18;93259.09;5083638;28;20082;-82
2022/12/10 01:46:36;;;;;;;13.15;4.53;;;;;;;9.11;77.90;93244.28;5083675;28;20024;-81
2022/12/10 01:49:05;;;;;;;17.38;6.65;;;;;;;9.25;77.43;93247.53;5083627;28;20304;-82
2022/12/10 01:51:33;;;;;;;18.75;7.28;;;;;;;9.25;77.00;93263.47;5083609;28;20020;-82
2022/12/10 01:53:59;;;;;;;26.10;7.85;;;;;;;9.13;76.40;93260.72;5083189;28;20020;-81
2022/12/10 01:56:24;;;;;;;26.77;8.07;;;;;;;8.97;77.44;93274.50;5083536;28;20111;-81
2022/12/10 01:58:53;;;;;;;21.38;7.35;;;;;;;8.74;78.20;93262.53;5083160;28;20028;-81
2022/12/10 02:01:37;;;;;;;23.55;7.53;;;;;;;8.70;78.95;93258.94;5083179;28;20251;-81
2022/12/10 02:04:26;;;;;;;21.48;6.88;;;;;;;8.69;78.90;93271.47;5083474;28;20293;-81
2022/12/10 02:07:12;;;;;;;22.05;8.30;;;;;;;8.72;79.39;93291.28;5083128;28;20022;-78
2022/12/10 02:09:43;;;;;;;21.58;7.20;;;;;;;8.72;79.31;93283.31;5083168;28;20050;-78
2022/12/10 02:12:25;;;;;;;35.30;7.85;;;;;;;8.80;78.52;93287.84;5083112;28;20036;-78
2022/12/10 02:15:18;;;;;;;15.70;7.60;;;;;;;8.76;79.03;93276.28;5083083;28;20031;-77
2022/12/10 02:17:45;;;;;;;;;;;;;;;8.71;78.85;93281.75;5083480;28;20204;-78
2022/12/10 02:20:40;;;;;;;18.85;6.70;;;;;;;8.72;79.13;93257.53;5082997;28;19908;-78
2022/12/10 02:23:11;;;;;;;19.88;7.70;;;;;;;8.74;79.66;93255.34;5082788;28;20027;-78
2022/12/10 02:26:08;;;;;;;16.13;6.43;;;;;;;8.76;79.48;93241.75;5083069;28;20312;-79
2022/12/10 02:28:48;;;;;;;20.67;6.32;;;;;;;8.69;79.66;93252.84;5065248;28;20037;-79
2022/12/10 02:31:18;;;;;;;19.08;6.97;;;;;;;8.55;80.38;93250.38;5082903;28;20058;-79
2022/12/10 02:33:49;;;;;;;18.08;6.35;;;;;;;8.36;80.75;93225.97;5082623;28;20020;-82
2022/12/10 02:36:17;;;;;;;20.40;6.55;;;;;;;8.44;81.26;93243.81;5082746;28;20025;-83
2022/12/10 02:38:44;;;;;;;22.73;6.22;;;;;;;8.49;81.02;93235.69;5082871;28;20032;-83
2022/12/10 02:41:16;;;;;;;21.02;6.65;;;;;;;8.51;81.13;93230.84;5082927;28;20055;-83
2022/12/10 02:43:45;;;;;;;17.85;6.03;;;;;;;8.55;80.70;93215.84;5082844;28;20122;-82
2022/12/10 02:46:11;;;;;;;14.48;6.20;;;;;;;8.61;80.96;93209.28;5082693;28;20099;-82
2022/12/10 02:48:37;;;;;;;14.35;6.72;;;;;;;8.71;80.89;93228.59;5082758;28;20203;-82
2022/12/10 02:51:02;;;;;;;15.52;6.03;;;;;;;8.77;80.68;93249.41;5082898;28;20319;-82
2022/12/10 02:53:28;;;;;;;19.20;6.78;;;;;;;8.75;80.34;93230.34;5081515;28;20143;-82
2022/12/10 02:56:08;;;;;;;19.70;6.10;;;;;;;8.78;79.83;93236.88;5081413;28;20408;-82
2022/12/10 02:59:16;;;;;;;22.77;6.80;;;;;;;8.84;80.11;93240.94;5082807;28;20031;-82
2022/12/10 03:01:53;;;;;;;22.10;6.05;;;;;;;8.87;79.97;93240.28;5082343;28;20036;-83
2022/12/10 03:04:21;;;;;;;23.08;6.78;;;;;;;8.94;79.91;93229.19;5082543;28;20028;-82
2022/12/10 03:06:52;;;;;;;20.88;6.72;;;;;;;9.02;79.78;93223.84;5081302;28;20097;-82
2022/12/10 03:09:32;;;;;;;18.25;5.65;;;;;;;9.12;79.58;93222.72;5082556;28;20096;-82
2022/12/10 03:12:02;;;;;;;22.83;5.85;;;;;;;9.23;79.74;93223.13;5082399;28;20028;-82
2022/12/10 03:14:30;;;;;;;13.65;5.80;;;;;;;9.22;78.44;93222.38;5082485;28;20261;-82
2022/12/10 03:16:58;;;;;;;12.65;5.88;;;;;;;9.22;78.24;93233.00;5082389;28;20025;-82
2022/12/10 03:19:32;;;;;;;20.67;5.38;;;;;;;9.21;78.54;93234.09;5082144;28;20211;-82
2022/12/10 03:21:59;;;;;;;21.92;6.50;;;;;;;9.20;78.17;93234.44;5086316;28;20326;-82
2022/12/10 03:24:27;;;;;;;11.93;5.05;;;;;;;9.15;78.81;93238.03;5086219;28;20048;-82
2022/12/10 03:26:52;;;;;;;10.85;5.03;;;;;;;9.16;79.39;93233.47;5086230;28;20024;-80
2022/12/10 03:29:24;;;;;;;18.00;6.40;;;;;;;9.24;79.76;93224.72;5086203;28;20315;-81
2022/12/10 03:31:52;;;;;;;12.45;3.80;;;;;;;9.41;77.84;93191.94;5086099;28;20020;-80
2022/12/10 03:34:18;;;;;;;15.73;3.58;;;;;;;9.63;77.58;93198.84;5086138;28;20025;-80
2022/12/10 03:36:44;;;;;;;14.57;5.22;;;;;;;9.77;77.28;93217.19;5086044;28;20044;-81
2022/12/10 03:39:10;;;;;;;14.40;5.60;;;;;;;9.84;77.01;93228.91;5085856;28;20234;-81
2022/12/10 03:41:35;;;;;;;14.98;5.30;;;;;;;9.90;76.67;93231.41;5085862;28;20024;-80
2022/12/10 03:44:01;;;;;;;14.52;5.95;;;;;;;9.97;76.30;93197.84;5086078;28;20092;-80
2022/12/10 03:46:30;;;;;;;12.35;5.05;;;;;;;9.98;74.86;93203.94;5085814;28;20329;-80
2022/12/10 03:48:57;;;;;;;18.17;4.95;;;;;;;9.91;75.30;93212.44;5085841;28;20065;-80
2022/12/10 03:51:23;;;;;;;17.23;5.93;;;;;;;9.76;76.28;93199.69;5085650;28;20024;-81
2022/12/10 03:53:49;;;;;;;14.57;6.07;;;;;;;9.64;76.69;93203.81;5085729;28;20099;-82
2022/12/10 03:56:15;;;;;;;20.98;6.47;;;;;;;9.62;77.19;93213.22;5085714;28;20281;-82
2022/12/10 03:58:40;;;;;;;15.98;5.68;;;;;;;9.62;77.35;93195.38;5085531;28;20027;-79
2022/12/10 04:01:06;;;;;;;14.85;5.53;;;;;;;9.67;77.27;93189.13;5085532;28;20032;-79
2022/12/10 04:03:36;;;;;;;15.85;5.13;;;;;;;9.71;76.93;93199.88;5085544;28;20039;-79
2022/12/10 04:06:07;;;;;;;11.75;4.88;;;;;;;9.76;76.66;93192.47;5085615;28;20028;-78
2022/12/10 04:08:33;;;;;;;16.60;5.05;;;;;;;9.79;76.63;93185.72;5085584;28;20226;-82
2022/12/10 04:11:08;;;;;;;14.68;5.15;;;;;;;9.69;76.93;93172.81;5085412;28;20124;-80
2022/12/10 04:16:26;;;;;;;14.13;5.25;;;;;;;9.65;76.93;93196.63;5085206;28;20047;-79
2022/12/10 04:18:52;;;;;;;;;;;;;;;9.55;77.54;93199.69;5085548;28;20024;-79
2022/12/10 04:26:52;;;;;;;16.55;4.38;;;;;;;9.58;78.23;93220.31;5085228;28;20027;-79
2022/12/10 04:29:28;;;;;;;11.15;4.15;;;;;;;9.64;77.80;93227.00;5085040;28;20030;-79
2022/12/10 04:31:54;;;;;;;16.90;4.65;;;;;;;9.65;77.83;93231.22;5085037;28;20040;-79
2022/12/10 04:34:20;;;;;;;14.73;4.97;;;;;;;9.62;78.08;93226.53;5084857;28;20043;-79
2022/12/10 04:36:47;;;;;;;11.30;4.68;;;;;;;9.63;78.45;93230.78;5085198;28;20020;-80
2022/12/10 04:39:13;;;;;;;10.65;4.18;;;;;;;9.66;78.20;93240.75;5084996;28;20021;-80
2022/12/10 04:41:40;;;;;;;16.15;4.35;;;;;;;9.68;77.92;93251.88;5084946;28;20065;-80
2022/12/10 04:44:06;;;;;;;18.13;4.78;;;;;;;9.69;78.08;93234.81;5084815;28;20095;-80
2022/12/10 04:46:31;;;;;;;14.10;5.13;;;;;;;9.67;78.49;93225.56;5084991;28;20020;-80
2022/12/10 04:48:57;;;;;;;15.88;5.18;;;;;;;9.78;78.95;93242.72;5084785;28;20024;-80
2022/12/10 04:51:22;;;;;;;15.10;5.10;;;;;;;9.72;79.21;93231.50;5084884;28;20020;-80
2022/12/10 04:53:48;;;;;;;14.35;5.18;;;;;;;9.70;79.42;93219.63;5084600;28;20315;-80
2022/12/10 04:56:13;;;;;;;16.42;5.13;;;;;;;9.74;79.56;93225.84;5084659;28;20095;-80
2022/12/10 04:58:39;;;;;;;12.02;4.85;;;;;;;9.71;79.55;93234.47;5084482;28;20028;-80
2022/12/10 05:01:06;;;;;;;20.05;6.32;;;;;;;9.73;80.43;93227.75;5084841;28;20020;-81
2022/12/10 05:03:31;;;;;;;15.88;5.32;;;;;;;9.77;80.67;93222.53;5084580;28;20103;-81
2022/12/10 05:06:02;;;;;;;12.35;5.35;;;;;;;9.84;80.69;93230.78;5083334;28;20309;-81
2022/12/10 05:08:27;;;;;;;16.92;6.10;;;;;;;9.88;80.93;93228.28;5084349;28;20044;-81
2022/12/10 05:10:52;;;;;;;13.15;6.10;;;;;;;9.92;80.75;93218.53;5084358;28;20020;-80
2022/12/10 05:13:18;;;;;;;22.85;6.63;;;;;;;9.92;80.88;93215.88;5084491;28;20022;-82
2022/12/10 05:15:43;;;;;;;16.65;8.18;;;;;;;9.98;80.90;93226.00;5084451;28;20021;-82
2022/12/10 05:18:09;;;;;;;15.40;5.82;;;;;;;9.97;80.48;93213.00;5084196;28;20090;-82
2022/12/10 05:20:34;;;;;;;15.82;5.35;;;;;;;9.94;80.82;93209.13;5084413;28;20024;-82
2022/12/10 05:25:52;;;;;;;14.02;5.97;;;;;;;9.95;81.01;93196.56;5084090;28;20035;-80
2022/12/10 05:28:22;;;;;;;10.65;5.05;;;;;;;9.88;81.25;93205.09;5083917;28;20048;-80
2022/12/10 05:30:47;;;;;;;15.32;5.82;;;;;;;9.90;81.18;93212.75;5083862;28;20200;-80
2022/12/10 05:33:13;;;;;;;16.13;5.72;;;;;;;9.83;81.15;93213.25;5084134;28;20031;-80
2022/12/10 05:35:39;;;;;;;17.30;5.43;;;;;;;9.82;81.32;93228.44;5083970;28;20031;-80
2022/12/10 05:38:05;;;;;;;10.52;5.05;;;;;;;9.81;81.64;93232.22;5083847;28;20017;-82
2022/12/10 05:40:34;;;;;;;14.48;5.70;;;;;;;9.71;81.89;93224.63;5084051;28;20026;-83
2022/12/10 05:42:59;;;;;;;13.30;6.57;;;;;;;9.69;82.27;93218.84;5083253;28;20047;-83
2022/12/10 05:45:25;;;;;;;17.00;7.35;;;;;;;9.73;82.27;93222.41;5083509;28;20025;-78
2022/12/10 05:47:50;;;;;;;13.35;5.57;;;;;;;9.73;82.29;93235.72;5083565;28;20303;-80
2022/12/10 05:50:16;;;;;;;19.48;6.30;;;;;;;9.66;82.16;93230.13;5083754;28;20028;-80
2022/12/10 05:52:41;;;;;;;15.45;5.32;;;;;;;9.63;82.23;93228.13;5083665;28;20028;-80
2022/12/10 05:55:07;;;;;;;20.67;6.15;;;;;;;9.62;82.28;93237.94;5083542;28;20255;-80
2022/12/10 05:57:32;;;;;;;17.85;5.95;;;;;;;9.61;82.59;93239.06;5083458;28;20311;-79
2022/12/10 05:59:58;;;;;;;21.83;6.22;;;;;;;9.57;82.46;93245.38;5083405;28;20072;-80
2022/12/10 06:02:23;;;;;;;14.45;6.25;;;;;;;9.58;82.42;93239.69;5083228;28;20047;-79
2022/12/10 06:04:48;;;;;;;11.57;5.55;;;;;;;9.60;82.54;93242.03;5083213;28;20341;-79
2022/12/10 06:07:14;;;;;;;12.98;6.97;;;;;;;9.62;82.62;93242.50;5083403;28;20026;-79
2022/12/10 06:09:39;;;;;;;13.45;5.05;;;;;;;9.62;82.95;93245.94;5083362;28;20253;-80
2022/12/10 06:12:05;;;;;;;19.90;6.60;;;;;;;9.66;82.64;93247.97;5083161;28;20016;-79
2022/12/10 06:14:30;;;;;;;12.45;6.60;;;;;;;9.69;82.58;93249.97;5083320;28;20035;-79
2022/12/10 06:16:56;;;;;;;21.42;6.43;;;;;;;9.71;82.84;93232.59;5083339;28;20024;-78
2022/12/10 06:19:21;;;;;;;16.98;6.55;;;;;;;9.75;82.90;93243.38;5083145;28;20044;-79
2022/12/10 06:21:47;;;;;;;18.92;6.07;;;;;;;9.68;82.69;93243.09;5083112;28;20051;-78
2022/12/10 06:24:12;;;;;;;12.52;5.38;;;;;;;9.70;83.16;93232.91;5083052;28;20020;-78
2022/12/10 06:26:38;;;;;;;32.78;6.50;;;;;;;9.75;83.09;93228.19;5083127;28;20282;-78
2022/12/10 06:29:04;;;;;;;15.45;6.80;;;;;;;9.78;83.45;93238.19;5083080;28;20054;-79
2022/12/10 06:31:30;;;;;;;15.23;6.80;;;;;;;9.79;83.50;93226.44;5083145;28;20023;-79
2022/12/10 06:33:55;;;;;;;18.50;7.45;;;;;;;9.85;83.46;93221.72;5082960;28;20230;-79
2022/12/10 06:36:21;;;;;;;20.13;8.20;;;;;;;9.89;83.36;93213.84;5082889;28;20079;-79
2022/12/10 06:38:47;;;;;;;23.00;8.23;;;;;;;9.96;83.42;93203.47;5082821;28;20355;-79
2022/12/10 06:41:14;;;;;;;20.95;8.02;;;;;;;9.96;83.59;93200.81;5082987;28;20123;-80
2022/12/10 06:43:40;;;;;;;19.13;9.40;;;;;;;9.99;83.54;93214.25;5082610;28;20149;-80
2022/12/10 06:46:11;;;;;;;29.65;12.52;;;;;;;10.04;83.68;93222.03;5082817;28;20024;-80
2022/12/10 06:48:37;;;;;;;30.17;11.50;;;;;;;10.11;83.80;93229.50;5082972;28;20103;-80
2022/12/10 06:51:04;;;;;;;30.45;11.75;;;;;;;10.15;83.75;93235.72;5082937;28;20024;-80
2022/12/10 06:53:30;;;;;;;24.60;11.02;;;;;;;10.19;83.52;93236.63;5082795;28;20028;-82
2022/12/10 06:55:58;;;;;;;24.35;11.80;;;;;;;10.28;83.34;93247.25;5085200;28;20220;-81
2022/12/10 06:58:24;;;;;;;21.95;10.43;;;;;;;10.34;83.38;93247.84;5086978;28;20024;-82
2022/12/10 07:00:49;;;;;;;22.15;9.55;;;;;;;10.40;83.08;93243.88;5086585;28;20044;-82
2022/12/10 07:03:14;;;;;;;27.48;9.70;;;;;;;10.43;82.46;93235.25;5086718;28;20337;-82
2022/12/10 07:05:40;;;;;;;30.65;10.02;;;;;;;10.46;82.52;93247.13;5086768;28;20338;-81
2022/12/10 07:08:05;;;;;;;17.73;9.07;;;;;;;10.54;82.80;93244.41;5086767;28;20024;-79
2022/12/10 07:10:31;;;;;;;23.05;8.55;;;;;;;10.52;82.59;93246.63;5086820;28;20078;-79
2022/12/10 07:12:56;;;;;;;15.40;6.90;;;;;;;10.53;81.19;93237.50;5086611;28;20099;-79
2022/12/10 07:15:23;;;;;;;26.27;9.50;;;;;;;10.55;81.27;93239.84;5086511;28;20024;-79
2022/12/10 07:17:50;;;;;;;41.63;11.15;;;;;;;10.48;81.60;93245.69;5086652;28;20048;-79
2022/12/10 07:20:16;;;;;;;25.17;9.35;;;;;;;10.49;82.57;93243.81;5086489;28;20032;-79
2022/12/10 07:22:41;;;;;;;26.20;8.73;;;;;;;10.45;83.33;93227.69;5086504;28;20080;-79
2022/12/10 07:25:07;;;;;;;22.05;8.23;;;;;;;10.51;83.58;93226.41;5086391;28;20099;-81
2022/12/10 07:27:32;;;;;;;19.45;7.93;;;;;;;10.57;83.69;93222.41;5086434;28;20193;-80
2022/12/10 07:29:58;;;;;;;16.52;7.50;;;;;;;10.66;83.14;93216.22;5086231;28;20031;-78
2022/12/10 07:32:23;;;;;;;20.80;7.05;;;;;;;10.75;82.22;93211.59;5086165;28;20227;-78
2022/12/10 07:34:49;;;;;;;19.33;7.10;;;;;;;10.80;82.16;93219.38;5086175;28;20032;-79
2022/12/10 07:37:14;;;;;;;15.93;7.35;;;;;;;10.87;82.23;93227.63;5085972;28;20024;-78
2022/12/10 07:39:40;;;;;;;17.27;7.97;;;;;;;10.83;81.72;93218.72;5085892;28;20028;-77
2022/12/10 07:42:05;;;;;;;29.13;9.18;;;;;;;10.75;81.96;93230.25;5085963;28;20248;-78
2022/12/10 07:44:30;;;;;;;21.77;8.02;;;;;;;10.74;82.36;93224.13;5086174;28;20031;-80
2022/12/10 07:46:56;;;;;;;23.63;7.57;;;;;;;10.76;82.90;93226.47;5085975;28;20020;-79
2022/12/10 07:49:22;;;;;;;16.85;6.90;;;;;;;10.84;82.71;93231.72;5085779;28;20028;-78
2022/12/10 07:51:49;;;;;;;18.35;7.10;;;;;;;10.86;82.67;93226.06;5086051;28;20020;-78
2022/12/10 07:54:15;;;;;;;22.00;8.73;;;;;;;10.91;81.01;93222.38;5085769;28;20016;-79
2022/12/10 07:56:41;;;;;;;22.27;8.50;;;;;;;10.90;81.07;93221.63;5085863;28;20020;-79
2022/12/10 07:59:06;;;;;;;22.30;8.98;;;;;;;10.89;81.72;93214.75;5085673;28;20380;-79
2022/12/10 08:01:32;;;;;;;19.48;8.82;;;;;;;10.90;81.87;93210.94;5085622;28;20368;-79
2022/12/10 08:03:57;;;;;;;22.67;9.50;;;;;;;10.99;81.94;93198.31;5085754;28;20040;-79
2022/12/10 08:06:25;;;;;;;22.33;10.02;;;;;;;11.11;81.93;93191.44;5085152;28;20214;-79
2022/12/10 08:08:51;;;;;;;21.67;9.13;;;;;;;11.17;81.53;93193.56;5085610;28;20114;-79
2022/12/10 08:11:18;;;;;;;34.42;8.93;;;;;;;11.22;81.41;93180.00;5085536;28;20215;-83
2022/12/10 08:13:44;;;;;;;25.52;8.52;;;;;;;11.26;81.57;93185.44;5085473;28;20042;-82
2022/12/10 08:16:14;;;;;;;25.42;9.27;;;;;;;11.35;80.71;93178.09;5085537;28;20017;-82
2022/12/10 08:18:40;;;;;;;25.38;8.50;;;;;;;11.29;81.09;93189.34;5085538;28;20036;-82
2022/12/10 08:21:08;;;;;;;32.35;9.95;;;;;;;11.27;81.52;93168.31;5085245;28;20215;-82
2022/12/10 08:23:34;;;;;;;26.17;9.43;;;;;;;11.24;81.94;93177.00;5085419;28;20029;-76
2022/12/10 08:26:06;;;;;;;24.15;8.23;;;;;;;11.28;80.92;93188.56;5085472;28;20274;-76
2022/12/10 08:28:32;;;;;;;;;;;;;;;11.27;81.31;93194.22;5085810;28;20375;-77
2022/12/10 08:30:58;;;;;;;22.50;9.13;;;;;;;11.30;82.20;93174.91;5085424;28;19904;-82
2022/12/10 08:34:08;;;;;;;22.55;9.38;;;;;;;11.45;82.31;93182.97;5085118;28;20448;-77
2022/12/10 08:36:34;;;;;;;23.75;9.35;;;;;;;11.60;81.90;93175.41;5081129;28;20037;-76
2022/12/10 08:38:59;;;;;;;22.85;9.80;;;;;;;11.64;81.20;93149.59;5085262;28;20036;-77
2022/12/10 08:41:24;;;;;;;24.08;9.63;;;;;;;11.75;80.83;93180.06;5085182;28;20157;-76
2022/12/10 08:43:51;;;;;;;20.75;9.00;;;;;;;11.73;79.67;93141.50;5084680;28;20344;-76
2022/12/10 08:46:17;;;;;;;19.92;9.80;;;;;;;11.54;80.09;93153.53;5084930;28;20048;-77
2022/12/10 08:48:48;;;;;;;20.88;9.43;;;;;;;11.55;80.31;93165.75;5084714;28;20017;-77
2022/12/10 08:51:16;;;;;;;22.15;9.07;;;;;;;11.57;80.20;93157.41;5084809;28;20081;-76
2022/12/10 08:53:42;;;;;;;18.40;9.93;;;;;;;11.62;80.66;93154.50;5084643;28;20017;-76
2022/12/10 08:56:07;;;;;;;21.50;11.80;;;;;;;11.71;80.56;93155.16;5083463;28;20024;-76
2022/12/10 08:58:48;;;;;;;22.67;8.73;;;;;;;11.82;79.25;93168.81;5084844;28;20027;-76
2022/12/10 09:01:16;;;;;;;22.95;9.27;;;;;;;11.90;79.10;93151.16;5084663;28;20036;-83
2022/12/10 09:03:42;;;;;;;27.13;9.13;;;;;;;11.95;79.21;93135.66;5084099;28;20192;-81
2022/12/10 09:06:11;;;;;;;23.80;10.02;;;;;;;11.98;78.94;93142.22;5084107;28;20024;-79
2022/12/10 09:08:36;;;;;;;20.55;9.88;;;;;;;12.04;78.44;93146.22;5084544;28;20087;-81
2022/12/10 09:11:12;;;;;;;25.45;10.05;;;;;;;12.01;78.05;93128.19;5084359;28;20023;-81
2022/12/10 09:13:41;;;;;;;22.63;9.43;;;;;;;12.00;77.08;93121.28;5083947;28;20024;-81
2022/12/10 09:16:06;;;;;;;22.55;9.80;;;;;;;11.96;77.09;93123.84;5084440;28;20273;-82
2022/12/10 09:18:32;;;;;;;26.30;8.95;;;;;;;11.84;77.42;93134.56;5083606;28;20024;-82
2022/12/10 09:20:58;;;;;;;21.30;9.32;;;;;;;11.83;78.67;93136.44;5084011;28;20077;-82
2022/12/10 09:23:23;;;;;;;20.70;9.63;;;;;;;11.91;77.13;93136.69;5083870;28;20086;-81
2022/12/10 09:25:49;;;;;;;21.77;9.70;;;;;;;11.82;77.49;93129.56;5083860;28;20218;-81
2022/12/10 09:28:15;;;;;;;25.60;10.25;;;;;;;11.84;78.50;93138.00;5083617;28;20020;-81
2022/12/10 09:30:40;;;;;;;24.85;10.48;;;;;;;11.95;78.92;93135.66;5083563;28;20033;-81
2022/12/10 09:33:06;;;;;;;18.20;9.88;;;;;;;11.96;78.40;93126.53;5083912;28;20351;-81
2022/12/10 09:35:32;;;;;;;24.73;11.40;;;;;;;12.06;77.46;93121.84;5084032;28;20025;-81
2022/12/10 09:37:57;;;;;;;20.13;10.38;;;;;;;12.12;77.16;93115.91;5083634;28;20098;-81
2022/12/10 09:41:01;;;;;;;25.27;10.27;;;;;;;12.00;76.68;93115.94;5083646;28;20032;-81
2022/12/10 09:43:39;;;;;;;26.77;11.45;;;;;;;12.02;77.43;93111.81;5082453;28;20258;-81
2022/12/10 09:46:22;;;;;;;24.15;10.55;;;;;;;12.18;77.98;93117.22;5083532;28;20035;-81
2022/12/10 09:48:56;;;;;;;35.95;11.65;;;;;;;12.25;76.85;93100.59;5083552;28;20073;-81
2022/12/10 09:51:34;;;;;;;18.25;9.90;;;;;;;12.21;76.75;93092.50;5083448;28;20024;-82
2022/12/10 09:54:02;;;;;;;21.27;9.80;;;;;;;12.13;76.89;93093.44;5083720;28;20061;-82
2022/12/10 09:56:34;;;;;;;23.00;11.80;;;;;;;12.21;77.93;93092.50;5083394;28;20027;-83
2022/12/10 09:59:03;;;;;;;20.73;8.98;;;;;;;12.28;76.08;93091.13;5083348;28;20024;-82
2022/12/10 10:01:33;;;;;;;14.85;7.38;;;;;;;12.28;76.49;93086.56;5083490;28;20024;-82
2022/12/10 10:03:58;;;;;;;14.27;6.20;;;;;;;12.29;75.36;93090.00;5083078;28;20032;-80
2022/12/10 10:06:27;;;;;;;19.05;5.28;;;;;;;12.35;74.41;93067.25;5083200;28;20029;-82
2022/12/10 10:08:58;;;;;;;17.02;6.13;;;;;;;12.39;74.02;93081.50;5083037;28;20071;-80
2022/12/10 10:11:30;;;;;;;14.57;5.43;;;;;;;12.56;73.85;93075.81;5083024;28;20028;-80
2022/12/10 10:14:01;;;;;;;20.13;7.17;;;;;;;12.75;72.36;93087.72;5082647;28;20036;-80
2022/12/10 10:16:34;;;;;;;17.92;7.57;;;;;;;12.83;71.83;93076.09;5083265;28;20100;-82
2022/12/10 10:19:03;;;;;;;22.23;7.00;;;;;;;12.88;72.91;93075.81;5083124;28;20024;-82
2022/12/10 10:21:41;;;;;;;14.38;5.45;;;;;;;12.90;70.65;93070.88;5083189;28;20062;-81
2022/12/10 10:24:13;;;;;;;23.52;6.68;;;;;;;12.90;71.88;93076.25;5082936;28;20060;-81
2022/12/10 10:26:39;;;;;;;22.75;7.40;;;;;;;13.13;71.64;93075.63;5083008;28;20028;-81
2022/12/10 10:29:08;;;;;;;22.45;6.70;;;;;;;13.35;70.73;93063.53;5082761;28;20108;-82
2022/12/10 10:31:35;;;;;;;17.38;5.97;;;;;;;13.50;69.92;93049.31;5083139;28;20032;-82
2022/12/10 10:34:04;;;;;;;16.65;6.22;;;;;;;13.64;68.10;93054.22;5083010;28;20031;-80
2022/12/10 10:36:33;;;;;;;14.95;6.00;;;;;;;13.79;69.08;93049.91;5081584;28;20020;-82
2022/12/10 10:39:32;;;;;;;14.45;5.45;;;;;;;14.00;69.82;93031.59;5082651;28;20020;-82
2022/12/10 10:42:00;;;;;;;15.15;5.53;;;;;;;14.20;68.61;93021.59;5060137;28;20242;-82
2022/12/10 10:44:34;;;;;;;9.48;4.57;;;;;;;14.42;65.64;93027.34;5082846;28;20036;-83
2022/12/10 10:47:00;;;;;;;55.10;24.50;;;;;;;14.56;65.91;93038.31;5082549;28;20032;-83
2022/12/10 10:49:34;;;;;;;25.08;11.75;;;;;;;14.73;66.29;93022.88;5081367;28;20101;-83
2022/12/10 10:52:19;;;;;;;22.48;7.60;;;;;;;14.86;65.83;93010.84;5082701;28;20017;-83
2022/12/10 10:54:46;;;;;;;19.40;6.35;;;;;;;14.99;64.34;93014.09;5082501;28;20039;-84
2022/12/10 10:57:17;;;;;;;22.30;6.32;;;;;;;15.05;64.30;93016.09;5082509;28;20113;-83
2022/12/10 10:59:43;;;;;;;13.20;5.47;;;;;;;15.18;64.07;93013.19;5082239;28;20052;-82
2022/12/10 11:02:20;;;;;;;12.30;5.22;;;;;;;15.23;63.29;93018.28;5082580;28;20211;-81
2022/12/10 11:04:49;;;;;;;10.57;4.95;;;;;;;15.35;62.38;93014.59;5082754;28;20036;-81
2022/12/10 11:07:32;;;;;;;9.93;4.53;;;;;;;15.31;60.98;93009.19;5082429;28;20016;-81
2022/12/10 11:09:57;;;;;;;16.58;5.95;;;;;;;15.30;60.72;92983.44;5081493;28;20345;-81
2022/12/10 11:12:34;;;;;;;20.42;7.20;;;;;;;15.20;61.54;92978.72;5082442;28;20033;-80
2022/12/10 11:14:59;;;;;;;13.27;5.97;;;;;;;15.18;62.32;92986.38;5082542;28;20051;-81
2022/12/10 11:17:26;;;;;;;19.10;6.13;;;;;;;15.22;61.72;92968.38;5081759;28;20266;-80
2022/12/10 11:20:16;;;;;;;11.32;5.45;;;;;;;15.14;62.29;92972.91;5079514;28;20065;-80
2022/12/10 11:22:50;;;;;;;22.67;8.07;;;;;;;15.03;63.49;92966.63;5080457;28;20319;-80
2022/12/10 11:25:17;;;;;;;26.65;7.90;;;;;;;14.93;64.02;92965.31;5080484;28;20040;-81
2022/12/10 11:27:58;;;;;;;19.60;7.55;;;;;;;14.99;64.50;92963.88;5080631;28;20058;-81
2022/12/10 11:30:26;;;;;;;27.83;11.02;;;;;;;15.14;64.66;92966.75;5080692;28;20219;-81
2022/12/10 11:33:17;;;;;;;17.10;7.82;;;;;;;15.29;64.32;92957.00;5081055;28;20019;-80
2022/12/10 11:35:51;;;;;;;19.92;8.88;;;;;;;15.42;64.08;92948.31;5082199;28;20020;-81
2022/12/10 11:38:33;;;;;;;23.15;8.80;;;;;;;15.55;63.40;92948.06;5082091;28;20027;-81
2022/12/10 11:40:58;;;;;;;28.35;7.53;;;;;;;15.58;63.05;92958.09;5083999;28;20069;-80
2022/12/10 11:43:48;;;;;;;24.08;7.55;;;;;;;15.54;63.57;92951.91;5085651;28;20048;-81
2022/12/10 11:46:17;;;;;;;15.55;7.05;;;;;;;15.40;63.68;92950.59;5086012;28;20028;-81
2022/12/10 11:48:57;;;;;;;21.45;6.85;;;;;;;15.32;63.84;92965.06;5085802;28;20062;-81